sensor_id;sensor_type;location;lat;lon;timestamp;temperature;humidity
584;HTU21D;27024;54.068;12.116;2023-05-23T00:01:03;16.70;64.41
584;HTU21D;27024;54.068;12.116;2023-05-23T00:03:33;16.57;65.36
584;HTU21D;27024;54.068;12.116;2023-05-23T00:06:00;16.60;64.75
584;HTU21D;27024;54.068;12.116;2023-05-23T00:08:28;16.57;64.08
584;HTU21D;27024;54.068;12.116;2023-05-23T00:10:54;16.72;63.29
584;HTU21D;27024;54.068;12.116;2023-05-23T00:13:21;16.71;63.19
584;HTU21D;27024;54.068;12.116;2023-05-23T00:15:48;16.70;64.68
584;HTU21D;27024;54.068;12.116;2023-05-23T00:18:15;16.66;65.73
584;HTU21D;27024;54.068;12.116;2023-05-23T00:20:42;16.69;66.58
584;HTU21D;27024;54.068;12.116;2023-05-23T00:23:10;16.70;66.45
584;HTU21D;27024;54.068;12.116;2023-05-23T00:25:39;16.75;64.90
584;HTU21D;27024;54.068;12.116;2023-05-23T00:28:07;16.61;66.43
584;HTU21D;27024;54.068;12.116;2023-05-23T00:30:33;16.64;66.32
584;HTU21D;27024;54.068;12.116;2023-05-23T00:33:01;16.62;66.04
584;HTU21D;27024;54.068;12.116;2023-05-23T00:35:28;16.66;65.94
584;HTU21D;27024;54.068;12.116;2023-05-23T00:37:55;16.64;65.91
584;HTU21D;27024;54.068;12.116;2023-05-23T00:40:22;16.54;65.11
584;HTU21D;27024;54.068;12.116;2023-05-23T00:42:49;16.55;64.66
584;HTU21D;27024;54.068;12.116;2023-05-23T00:45:16;16.66;63.26
584;HTU21D;27024;54.068;12.116;2023-05-23T00:47:45;16.80;62.62
584;HTU21D;27024;54.068;12.116;2023-05-23T00:50:13;16.72;63.63
584;HTU21D;27024;54.068;12.116;2023-05-23T00:52:45;16.60;63.25
584;HTU21D;27024;54.068;12.116;2023-05-23T00:55:14;16.75;62.87
584;HTU21D;27024;54.068;12.116;2023-05-23T00:57:41;16.74;63.87
584;HTU21D;27024;54.068;12.116;2023-05-23T01:00:11;16.73;63.98
584;HTU21D;27024;54.068;12.116;2023-05-23T01:02:43;16.73;64.27
584;HTU21D;27024;54.068;12.116;2023-05-23T01:05:12;16.60;66.27
584;HTU21D;27024;54.068;12.116;2023-05-23T01:07:40;16.57;67.29
584;HTU21D;27024;54.068;12.116;2023-05-23T01:10:08;16.61;66.77
584;HTU21D;27024;54.068;12.116;2023-05-23T01:15:13;16.57;67.75
584;HTU21D;27024;54.068;12.116;2023-05-23T01:20:21;16.57;70.28
584;HTU21D;27024;54.068;12.116;2023-05-23T01:27:56;16.43;78.31
584;HTU21D;27024;54.068;12.116;2023-05-23T01:30:26;16.20;80.90
584;HTU21D;27024;54.068;12.116;2023-05-23T01:32:57;16.25;81.70
584;HTU21D;27024;54.068;12.116;2023-05-23T01:35:25;16.17;86.09
584;HTU21D;27024;54.068;12.116;2023-05-23T01:37:56;16.10;88.22
584;HTU21D;27024;54.068;12.116;2023-05-23T01:40:24;16.07;87.41
584;HTU21D;27024;54.068;12.116;2023-05-23T01:42:53;15.95;88.71
584;HTU21D;27024;54.068;12.116;2023-05-23T01:45:21;15.95;89.12
584;HTU21D;27024;54.068;12.116;2023-05-23T01:47:53;16.02;89.64
584;HTU21D;27024;54.068;12.116;2023-05-23T01:50:21;16.01;88.35
584;HTU21D;27024;54.068;12.116;2023-05-23T01:52:48;15.97;89.21
584;HTU21D;27024;54.068;12.116;2023-05-23T01:55:18;15.97;89.87
584;HTU21D;27024;54.068;12.116;2023-05-23T01:57:54;16.02;89.23
584;HTU21D;27024;54.068;12.116;2023-05-23T02:00:22;15.98;89.57
584;HTU21D;27024;54.068;12.116;2023-05-23T02:02:49;15.92;90.51
584;HTU21D;27024;54.068;12.116;2023-05-23T02:05:17;15.88;90.84
584;HTU21D;27024;54.068;12.116;2023-05-23T02:07:43;15.95;90.73
584;HTU21D;27024;54.068;12.116;2023-05-23T02:10:10;15.80;91.40
584;HTU21D;27024;54.068;12.116;2023-05-23T02:12:37;15.74;92.43
584;HTU21D;27024;54.068;12.116;2023-05-23T02:15:04;15.74;93.07
584;HTU21D;27024;54.068;12.116;2023-05-23T02:17:31;15.73;94.13
584;HTU21D;27024;54.068;12.116;2023-05-23T02:19:58;15.69;94.19
584;HTU21D;27024;54.068;12.116;2023-05-23T02:22:25;15.65;93.91
584;HTU21D;27024;54.068;12.116;2023-05-23T02:24:52;15.62;93.98
584;HTU21D;27024;54.068;12.116;2023-05-23T02:27:18;15.61;95.33
584;HTU21D;27024;54.068;12.116;2023-05-23T02:29:45;15.48;97.03
584;HTU21D;27024;54.068;12.116;2023-05-23T02:32:12;15.45;97.33
584;HTU21D;27024;54.068;12.116;2023-05-23T02:34:39;15.47;96.39
584;HTU21D;27024;54.068;12.116;2023-05-23T02:37:07;15.47;94.30
584;HTU21D;27024;54.068;12.116;2023-05-23T02:39:35;15.47;94.91
584;HTU21D;27024;54.068;12.116;2023-05-23T02:42:02;15.39;96.10
584;HTU21D;27024;54.068;12.116;2023-05-23T02:44:30;15.34;98.00
584;HTU21D;27024;54.068;12.116;2023-05-23T02:46:57;15.37;97.81
584;HTU21D;27024;54.068;12.116;2023-05-23T02:49:24;15.41;97.10
584;HTU21D;27024;54.068;12.116;2023-05-23T02:51:51;15.48;95.84
584;HTU21D;27024;54.068;12.116;2023-05-23T02:54:18;15.52;95.62
584;HTU21D;27024;54.068;12.116;2023-05-23T02:56:44;15.38;95.26
584;HTU21D;27024;54.068;12.116;2023-05-23T02:59:12;15.39;95.88
584;HTU21D;27024;54.068;12.116;2023-05-23T03:01:39;15.45;95.71
584;HTU21D;27024;54.068;12.116;2023-05-23T03:04:06;15.49;94.57
584;HTU21D;27024;54.068;12.116;2023-05-23T03:06:33;15.47;93.88
584;HTU21D;27024;54.068;12.116;2023-05-23T03:09:02;15.47;93.53
584;HTU21D;27024;54.068;12.116;2023-05-23T03:11:30;15.46;93.43
584;HTU21D;27024;54.068;12.116;2023-05-23T03:13:56;15.51;93.31
584;HTU21D;27024;54.068;12.116;2023-05-23T03:16:23;15.51;93.75
584;HTU21D;27024;54.068;12.116;2023-05-23T03:18:50;15.54;94.21
584;HTU21D;27024;54.068;12.116;2023-05-23T03:21:17;15.48;94.78
584;HTU21D;27024;54.068;12.116;2023-05-23T03:23:44;15.51;93.64
584;HTU21D;27024;54.068;12.116;2023-05-23T03:26:11;15.45;94.98
584;HTU21D;27024;54.068;12.116;2023-05-23T03:28:37;15.53;94.33
584;HTU21D;27024;54.068;12.116;2023-05-23T03:31:04;15.53;94.65
584;HTU21D;27024;54.068;12.116;2023-05-23T03:33:31;15.56;94.65
584;HTU21D;27024;54.068;12.116;2023-05-23T03:35:58;15.40;93.16
584;HTU21D;27024;54.068;12.116;2023-05-23T03:38:26;15.49;92.88
584;HTU21D;27024;54.068;12.116;2023-05-23T03:40:53;15.60;91.76
584;HTU21D;27024;54.068;12.116;2023-05-23T03:43:20;15.66;91.48
584;HTU21D;27024;54.068;12.116;2023-05-23T03:45:46;15.56;91.45
584;HTU21D;27024;54.068;12.116;2023-05-23T03:48:14;15.60;91.57
584;HTU21D;27024;54.068;12.116;2023-05-23T03:50:41;15.55;90.53
584;HTU21D;27024;54.068;12.116;2023-05-23T03:53:08;15.48;90.64
584;HTU21D;27024;54.068;12.116;2023-05-23T03:55:35;15.45;89.05
584;HTU21D;27024;54.068;12.116;2023-05-23T03:58:02;15.55;89.44
584;HTU21D;27024;54.068;12.116;2023-05-23T04:00:28;15.54;91.31
584;HTU21D;27024;54.068;12.116;2023-05-23T04:02:55;15.60;90.33
584;HTU21D;27024;54.068;12.116;2023-05-23T04:05:22;15.48;90.08
584;HTU21D;27024;54.068;12.116;2023-05-23T04:07:49;15.53;87.81
584;HTU21D;27024;54.068;12.116;2023-05-23T04:10:17;15.58;88.37
584;HTU21D;27024;54.068;12.116;2023-05-23T04:12:44;15.43;89.91
584;HTU21D;27024;54.068;12.116;2023-05-23T04:15:11;15.48;89.77
584;HTU21D;27024;54.068;12.116;2023-05-23T04:17:38;15.51;89.74
584;HTU21D;27024;54.068;12.116;2023-05-23T04:20:06;15.47;89.34
584;HTU21D;27024;54.068;12.116;2023-05-23T04:22:35;15.52;89.59
584;HTU21D;27024;54.068;12.116;2023-05-23T04:25:02;15.53;88.18
584;HTU21D;27024;54.068;12.116;2023-05-23T04:27:29;15.61;87.39
584;HTU21D;27024;54.068;12.116;2023-05-23T04:29:56;15.59;88.67
584;HTU21D;27024;54.068;12.116;2023-05-23T04:32:23;15.62;88.08
584;HTU21D;27024;54.068;12.116;2023-05-23T04:34:51;15.67;88.02
584;HTU21D;27024;54.068;12.116;2023-05-23T04:37:18;15.67;86.88
584;HTU21D;27024;54.068;12.116;2023-05-23T04:39:51;15.74;86.73
584;HTU21D;27024;54.068;12.116;2023-05-23T04:42:18;15.70;87.81
584;HTU21D;27024;54.068;12.116;2023-05-23T04:44:50;15.67;88.84
584;HTU21D;27024;54.068;12.116;2023-05-23T04:47:18;15.75;88.69
584;HTU21D;27024;54.068;12.116;2023-05-23T04:49:45;15.76;89.09
584;HTU21D;27024;54.068;12.116;2023-05-23T04:52:12;15.72;91.77
584;HTU21D;27024;54.068;12.116;2023-05-23T04:54:38;15.67;89.24
584;HTU21D;27024;54.068;12.116;2023-05-23T04:57:10;15.82;88.31
584;HTU21D;27024;54.068;12.116;2023-05-23T04:59:38;15.85;88.59
584;HTU21D;27024;54.068;12.116;2023-05-23T05:02:05;15.85;89.73
584;HTU21D;27024;54.068;12.116;2023-05-23T05:04:32;15.83;87.73
584;HTU21D;27024;54.068;12.116;2023-05-23T05:06:59;15.89;90.70
584;HTU21D;27024;54.068;12.116;2023-05-23T05:09:26;15.82;93.69
584;HTU21D;27024;54.068;12.116;2023-05-23T05:11:53;15.65;93.63
584;HTU21D;27024;54.068;12.116;2023-05-23T05:14:19;15.72;92.17
584;HTU21D;27024;54.068;12.116;2023-05-23T05:16:46;15.73;92.31
584;HTU21D;27024;54.068;12.116;2023-05-23T05:19:15;15.74;90.65
584;HTU21D;27024;54.068;12.116;2023-05-23T05:21:42;15.84;91.22
584;HTU21D;27024;54.068;12.116;2023-05-23T05:24:09;15.89;91.24
584;HTU21D;27024;54.068;12.116;2023-05-23T05:26:36;15.97;92.18
584;HTU21D;27024;54.068;12.116;2023-05-23T05:29:03;15.97;92.61
584;HTU21D;27024;54.068;12.116;2023-05-23T05:31:30;15.98;93.92
584;HTU21D;27024;54.068;12.116;2023-05-23T05:33:57;15.98;88.57
584;HTU21D;27024;54.068;12.116;2023-05-23T05:36:24;16.08;87.96
584;HTU21D;27024;54.068;12.116;2023-05-23T05:38:51;16.21;87.73
584;HTU21D;27024;54.068;12.116;2023-05-23T05:41:18;16.34;85.85
584;HTU21D;27024;54.068;12.116;2023-05-23T05:43:46;16.39;85.35
584;HTU21D;27024;54.068;12.116;2023-05-23T05:46:12;16.46;85.55
584;HTU21D;27024;54.068;12.116;2023-05-23T05:48:39;16.46;86.00
584;HTU21D;27024;54.068;12.116;2023-05-23T05:51:06;16.55;86.29
584;HTU21D;27024;54.068;12.116;2023-05-23T05:53:33;16.52;87.30
584;HTU21D;27024;54.068;12.116;2023-05-23T05:56:01;16.48;88.97
584;HTU21D;27024;54.068;12.116;2023-05-23T05:58:28;16.50;89.15
584;HTU21D;27024;54.068;12.116;2023-05-23T06:00:54;16.54;89.19
584;HTU21D;27024;54.068;12.116;2023-05-23T06:03:21;16.59;87.97
584;HTU21D;27024;54.068;12.116;2023-05-23T06:05:50;16.65;88.05
584;HTU21D;27024;54.068;12.116;2023-05-23T06:08:17;16.70;89.57
584;HTU21D;27024;54.068;12.116;2023-05-23T06:10:43;16.74;88.60
584;HTU21D;27024;54.068;12.116;2023-05-23T06:13:10;16.71;89.16
584;HTU21D;27024;54.068;12.116;2023-05-23T06:15:49;16.63;90.12
584;HTU21D;27024;54.068;12.116;2023-05-23T06:18:16;16.73;89.00
584;HTU21D;27024;54.068;12.116;2023-05-23T06:20:43;16.73;89.44
584;HTU21D;27024;54.068;12.116;2023-05-23T06:23:35;16.71;89.43
584;HTU21D;27024;54.068;12.116;2023-05-23T06:26:02;16.64;90.48
584;HTU21D;27024;54.068;12.116;2023-05-23T06:28:33;16.76;90.37
584;HTU21D;27024;54.068;12.116;2023-05-23T06:31:00;16.87;91.53
584;HTU21D;27024;54.068;12.116;2023-05-23T06:33:27;16.90;91.25
584;HTU21D;27024;54.068;12.116;2023-05-23T06:35:53;16.98;90.22
584;HTU21D;27024;54.068;12.116;2023-05-23T06:38:20;17.08;91.11
584;HTU21D;27024;54.068;12.116;2023-05-23T06:40:47;17.13;90.33
584;HTU21D;27024;54.068;12.116;2023-05-23T06:43:14;17.03;91.05
584;HTU21D;27024;54.068;12.116;2023-05-23T06:45:41;17.17;90.99
584;HTU21D;27024;54.068;12.116;2023-05-23T06:48:08;17.44;89.81
584;HTU21D;27024;54.068;12.116;2023-05-23T06:50:35;17.83;88.67
584;HTU21D;27024;54.068;12.116;2023-05-23T06:53:02;18.51;88.47
584;HTU21D;27024;54.068;12.116;2023-05-23T06:55:28;18.64;86.00
584;HTU21D;27024;54.068;12.116;2023-05-23T06:57:56;18.43;85.38
584;HTU21D;27024;54.068;12.116;2023-05-23T07:00:22;18.35;85.55
584;HTU21D;27024;54.068;12.116;2023-05-23T07:02:49;18.36;87.43
584;HTU21D;27024;54.068;12.116;2023-05-23T07:05:16;18.44;86.14
584;HTU21D;27024;54.068;12.116;2023-05-23T07:07:43;18.27;87.25
584;HTU21D;27024;54.068;12.116;2023-05-23T07:10:10;18.20;87.73
584;HTU21D;27024;54.068;12.116;2023-05-23T07:12:37;18.30;87.93
584;HTU21D;27024;54.068;12.116;2023-05-23T07:15:04;18.28;88.69
584;HTU21D;27024;54.068;12.116;2023-05-23T07:17:31;18.33;89.38
584;HTU21D;27024;54.068;12.116;2023-05-23T07:19:58;18.47;89.24
584;HTU21D;27024;54.068;12.116;2023-05-23T07:22:25;18.51;89.89
584;HTU21D;27024;54.068;12.116;2023-05-23T07:24:52;18.42;90.79
584;HTU21D;27024;54.068;12.116;2023-05-23T07:27:19;18.26;93.46
584;HTU21D;27024;54.068;12.116;2023-05-23T07:29:46;18.42;92.29
584;HTU21D;27024;54.068;12.116;2023-05-23T07:32:13;18.66;91.60
584;HTU21D;27024;54.068;12.116;2023-05-23T07:34:40;18.85;90.91
584;HTU21D;27024;54.068;12.116;2023-05-23T07:37:07;18.98;90.76
584;HTU21D;27024;54.068;12.116;2023-05-23T07:39:34;19.42;88.41
584;HTU21D;27024;54.068;12.116;2023-05-23T07:42:01;19.61;86.03
584;HTU21D;27024;54.068;12.116;2023-05-23T07:44:28;19.63;85.45
584;HTU21D;27024;54.068;12.116;2023-05-23T07:46:54;20.33;84.52
584;HTU21D;27024;54.068;12.116;2023-05-23T07:49:22;20.32;82.93
584;HTU21D;27024;54.068;12.116;2023-05-23T07:51:49;20.14;81.52
584;HTU21D;27024;54.068;12.116;2023-05-23T07:54:15;19.84;83.48
584;HTU21D;27024;54.068;12.116;2023-05-23T07:56:42;19.75;82.85
584;HTU21D;27024;54.068;12.116;2023-05-23T07:59:09;19.59;85.54
584;HTU21D;27024;54.068;12.116;2023-05-23T08:01:36;19.42;85.23
584;HTU21D;27024;54.068;12.116;2023-05-23T08:04:03;19.36;87.06
584;HTU21D;27024;54.068;12.116;2023-05-23T08:06:30;19.37;88.40
584;HTU21D;27024;54.068;12.116;2023-05-23T08:08:58;19.15;90.14
584;HTU21D;27024;54.068;12.116;2023-05-23T08:11:24;19.12;90.03
584;HTU21D;27024;54.068;12.116;2023-05-23T08:13:53;18.97;91.02
584;HTU21D;27024;54.068;12.116;2023-05-23T08:16:19;18.89;92.78
584;HTU21D;27024;54.068;12.116;2023-05-23T08:18:47;18.83;93.95
584;HTU21D;27024;54.068;12.116;2023-05-23T08:21:14;18.67;94.98
584;HTU21D;27024;54.068;12.116;2023-05-23T08:23:40;18.51;96.01
584;HTU21D;27024;54.068;12.116;2023-05-23T08:26:07;18.55;96.79
584;HTU21D;27024;54.068;12.116;2023-05-23T08:28:34;18.61;96.13
584;HTU21D;27024;54.068;12.116;2023-05-23T08:31:01;18.40;96.10
584;HTU21D;27024;54.068;12.116;2023-05-23T08:33:28;18.57;96.04
584;HTU21D;27024;54.068;12.116;2023-05-23T08:35:55;18.56;95.82
584;HTU21D;27024;54.068;12.116;2023-05-23T08:38:21;18.57;94.80
584;HTU21D;27024;54.068;12.116;2023-05-23T08:40:50;18.61;95.75
584;HTU21D;27024;54.068;12.116;2023-05-23T08:43:20;18.61;95.01
584;HTU21D;27024;54.068;12.116;2023-05-23T08:45:48;18.77;97.60
584;HTU21D;27024;54.068;12.116;2023-05-23T08:48:18;18.76;98.76
584;HTU21D;27024;54.068;12.116;2023-05-23T08:50:47;18.85;97.97
584;HTU21D;27024;54.068;12.116;2023-05-23T08:53:15;18.74;96.66
584;HTU21D;27024;54.068;12.116;2023-05-23T08:55:46;19.01;96.70
584;HTU21D;27024;54.068;12.116;2023-05-23T08:58:14;19.23;97.10
584;HTU21D;27024;54.068;12.116;2023-05-23T09:00:41;19.32;94.87
584;HTU21D;27024;54.068;12.116;2023-05-23T09:03:10;19.40;94.20
584;HTU21D;27024;54.068;12.116;2023-05-23T09:05:38;19.28;94.22
584;HTU21D;27024;54.068;12.116;2023-05-23T09:08:05;19.35;94.61
584;HTU21D;27024;54.068;12.116;2023-05-23T09:10:31;19.47;93.80
584;HTU21D;27024;54.068;12.116;2023-05-23T09:12:58;19.70;92.05
584;HTU21D;27024;54.068;12.116;2023-05-23T09:15:25;19.71;92.25
584;HTU21D;27024;54.068;12.116;2023-05-23T09:17:52;19.62;92.50
584;HTU21D;27024;54.068;12.116;2023-05-23T09:20:24;19.71;88.92
584;HTU21D;27024;54.068;12.116;2023-05-23T09:22:53;19.60;88.96
584;HTU21D;27024;54.068;12.116;2023-05-23T09:25:21;19.44;87.30
584;HTU21D;27024;54.068;12.116;2023-05-23T09:27:47;19.25;87.51
584;HTU21D;27024;54.068;12.116;2023-05-23T09:30:14;19.22;82.75
584;HTU21D;27024;54.068;12.116;2023-05-23T09:32:56;19.03;83.28
584;HTU21D;27024;54.068;12.116;2023-05-23T09:35:23;19.03;85.86
584;HTU21D;27024;54.068;12.116;2023-05-23T09:37:50;19.42;85.46
584;HTU21D;27024;54.068;12.116;2023-05-23T09:40:21;18.72;83.93
584;HTU21D;27024;54.068;12.116;2023-05-23T09:42:50;18.89;83.71
584;HTU21D;27024;54.068;12.116;2023-05-23T09:45:16;19.14;82.23
584;HTU21D;27024;54.068;12.116;2023-05-23T09:47:50;18.71;82.80
584;HTU21D;27024;54.068;12.116;2023-05-23T09:50:18;18.65;83.52
584;HTU21D;27024;54.068;12.116;2023-05-23T09:52:45;18.79;83.14
584;HTU21D;27024;54.068;12.116;2023-05-23T09:55:13;18.68;83.91
584;HTU21D;27024;54.068;12.116;2023-05-23T09:57:41;18.51;81.97
584;HTU21D;27024;54.068;12.116;2023-05-23T10:00:09;18.52;79.69
584;HTU21D;27024;54.068;12.116;2023-05-23T10:03:21;18.59;77.96
584;HTU21D;27024;54.068;12.116;2023-05-23T10:05:44;18.26;80.12
584;HTU21D;27024;54.068;12.116;2023-05-23T10:08:18;18.36;80.76
584;HTU21D;27024;54.068;12.116;2023-05-23T10:16:27;18.14;78.75
584;HTU21D;27024;54.068;12.116;2023-05-23T10:19:02;18.02;78.43
584;HTU21D;27024;54.068;12.116;2023-05-23T10:21:54;18.24;79.06
584;HTU21D;27024;54.068;12.116;2023-05-23T10:24:23;18.18;77.84
584;HTU21D;27024;54.068;12.116;2023-05-23T10:26:51;18.13;79.41
584;HTU21D;27024;54.068;12.116;2023-05-23T10:29:19;18.08;80.51
584;HTU21D;27024;54.068;12.116;2023-05-23T10:31:47;18.26;80.65
584;HTU21D;27024;54.068;12.116;2023-05-23T10:37:02;18.72;75.88
584;HTU21D;27024;54.068;12.116;2023-05-23T10:42:53;18.43;77.38
584;HTU21D;27024;54.068;12.116;2023-05-23T10:45:22;18.14;77.94
584;HTU21D;27024;54.068;12.116;2023-05-23T10:47:51;17.96;79.21
584;HTU21D;27024;54.068;12.116;2023-05-23T10:50:32;18.02;79.20
584;HTU21D;27024;54.068;12.116;2023-05-23T10:53:00;18.06;79.41
584;HTU21D;27024;54.068;12.116;2023-05-23T10:55:33;17.82;81.16
584;HTU21D;27024;54.068;12.116;2023-05-23T10:58:20;17.55;80.25
584;HTU21D;27024;54.068;12.116;2023-05-23T11:00:56;17.29;81.79
584;HTU21D;27024;54.068;12.116;2023-05-23T11:06:30;17.41;81.43
584;HTU21D;27024;54.068;12.116;2023-05-23T11:09:03;16.91;83.42
584;HTU21D;27024;54.068;12.116;2023-05-23T11:11:52;16.91;84.71
584;HTU21D;27024;54.068;12.116;2023-05-23T11:19:39;16.98;84.76
584;HTU21D;27024;54.068;12.116;2023-05-23T11:22:21;16.72;86.17
584;HTU21D;27024;54.068;12.116;2023-05-23T11:24:53;16.80;86.10
584;HTU21D;27024;54.068;12.116;2023-05-23T11:27:31;16.72;88.14
584;HTU21D;27024;54.068;12.116;2023-05-23T11:30:05;16.76;89.51
584;HTU21D;27024;54.068;12.116;2023-05-23T11:32:32;16.86;90.34
584;HTU21D;27024;54.068;12.116;2023-05-23T11:35:01;16.91;90.95
584;HTU21D;27024;54.068;12.116;2023-05-23T11:37:29;16.90;91.72
584;HTU21D;27024;54.068;12.116;2023-05-23T11:39:57;16.81;93.13
584;HTU21D;27024;54.068;12.116;2023-05-23T11:42:24;16.71;93.57
584;HTU21D;27024;54.068;12.116;2023-05-23T11:44:51;16.27;95.93
584;HTU21D;27024;54.068;12.116;2023-05-23T11:47:19;16.47;96.33
584;HTU21D;27024;54.068;12.116;2023-05-23T11:49:46;16.33;96.18
584;HTU21D;27024;54.068;12.116;2023-05-23T11:52:13;16.49;95.20
584;HTU21D;27024;54.068;12.116;2023-05-23T11:54:41;16.48;95.26
584;HTU21D;27024;54.068;12.116;2023-05-23T11:57:09;16.45;95.46
584;HTU21D;27024;54.068;12.116;2023-05-23T11:59:37;16.34;95.07
584;HTU21D;27024;54.068;12.116;2023-05-23T12:02:05;16.25;95.91
584;HTU21D;27024;54.068;12.116;2023-05-23T12:04:34;16.20;96.38
584;HTU21D;27024;54.068;12.116;2023-05-23T12:07:06;16.22;97.16
584;HTU21D;27024;54.068;12.116;2023-05-23T12:09:43;16.35;96.44
584;HTU21D;27024;54.068;12.116;2023-05-23T12:12:11;16.07;97.68
584;HTU21D;27024;54.068;12.116;2023-05-23T12:14:39;15.60;99.83
584;HTU21D;27024;54.068;12.116;2023-05-23T12:17:11;15.69;100.17
584;HTU21D;27024;54.068;12.116;2023-05-23T12:19:39;15.73;99.94
584;HTU21D;27024;54.068;12.116;2023-05-23T12:22:10;15.22;101.34
584;HTU21D;27024;54.068;12.116;2023-05-23T12:24:45;15.43;100.26
584;HTU21D;27024;54.068;12.116;2023-05-23T12:27:15;15.16;101.57
584;HTU21D;27024;54.068;12.116;2023-05-23T12:29:49;15.19;101.95
584;HTU21D;27024;54.068;12.116;2023-05-23T12:32:19;15.08;102.14
584;HTU21D;27024;54.068;12.116;2023-05-23T12:34:50;14.95;102.93
584;HTU21D;27024;54.068;12.116;2023-05-23T12:37:17;14.89;103.64
584;HTU21D;27024;54.068;12.116;2023-05-23T12:39:46;14.57;105.28
584;HTU21D;27024;54.068;12.116;2023-05-23T12:42:13;14.82;105.14
584;HTU21D;27024;54.068;12.116;2023-05-23T12:44:40;14.44;107.33
584;HTU21D;27024;54.068;12.116;2023-05-23T12:47:09;14.34;107.88
584;HTU21D;27024;54.068;12.116;2023-05-23T12:49:36;14.30;108.40
584;HTU21D;27024;54.068;12.116;2023-05-23T12:52:03;14.44;107.37
584;HTU21D;27024;54.068;12.116;2023-05-23T12:54:30;14.22;108.04
584;HTU21D;27024;54.068;12.116;2023-05-23T12:56:57;14.23;107.17
584;HTU21D;27024;54.068;12.116;2023-05-23T12:59:24;14.29;106.74
584;HTU21D;27024;54.068;12.116;2023-05-23T13:01:51;14.30;107.04
584;HTU21D;27024;54.068;12.116;2023-05-23T13:04:18;14.17;107.77
584;HTU21D;27024;54.068;12.116;2023-05-23T13:06:45;14.25;107.62
584;HTU21D;27024;54.068;12.116;2023-05-23T13:09:12;14.18;107.25
584;HTU21D;27024;54.068;12.116;2023-05-23T13:11:40;14.00;108.98
584;HTU21D;27024;54.068;12.116;2023-05-23T13:14:07;14.07;108.77
584;HTU21D;27024;54.068;12.116;2023-05-23T13:16:34;13.90;109.48
584;HTU21D;27024;54.068;12.116;2023-05-23T13:19:01;13.81;111.84
584;HTU21D;27024;54.068;12.116;2023-05-23T13:21:29;13.69;113.08
584;HTU21D;27024;54.068;12.116;2023-05-23T13:23:57;13.53;112.85
584;HTU21D;27024;54.068;12.116;2023-05-23T13:26:23;13.31;111.63
584;HTU21D;27024;54.068;12.116;2023-05-23T13:28:51;13.20;111.73
584;HTU21D;27024;54.068;12.116;2023-05-23T13:31:18;13.32;110.98
584;HTU21D;27024;54.068;12.116;2023-05-23T13:33:45;13.20;112.61
584;HTU21D;27024;54.068;12.116;2023-05-23T13:36:12;13.17;112.35
584;HTU21D;27024;54.068;12.116;2023-05-23T13:38:39;13.15;112.04
584;HTU21D;27024;54.068;12.116;2023-05-23T13:41:06;13.05;112.26
584;HTU21D;27024;54.068;12.116;2023-05-23T13:43:33;13.15;112.00
584;HTU21D;27024;54.068;12.116;2023-05-23T13:46:00;12.99;113.46
584;HTU21D;27024;54.068;12.116;2023-05-23T13:48:28;12.84;114.16
584;HTU21D;27024;54.068;12.116;2023-05-23T13:50:55;12.92;114.70
584;HTU21D;27024;54.068;12.116;2023-05-23T13:53:22;12.82;115.52
584;HTU21D;27024;54.068;12.116;2023-05-23T13:55:49;12.71;114.43
584;HTU21D;27024;54.068;12.116;2023-05-23T13:58:16;12.64;115.62
584;HTU21D;27024;54.068;12.116;2023-05-23T14:00:43;12.70;113.76
584;HTU21D;27024;54.068;12.116;2023-05-23T14:03:10;12.73;114.94
584;HTU21D;27024;54.068;12.116;2023-05-23T14:05:37;12.63;114.75
584;HTU21D;27024;54.068;12.116;2023-05-23T14:08:04;12.66;114.60
584;HTU21D;27024;54.068;12.116;2023-05-23T14:10:32;12.77;114.73
584;HTU21D;27024;54.068;12.116;2023-05-23T14:12:59;12.86;113.00
584;HTU21D;27024;54.068;12.116;2023-05-23T14:15:26;12.67;114.25
584;HTU21D;27024;54.068;12.116;2023-05-23T14:17:54;12.80;113.38
584;HTU21D;27024;54.068;12.116;2023-05-23T14:20:22;12.75;111.55
584;HTU21D;27024;54.068;12.116;2023-05-23T14:22:49;12.91;111.21
584;HTU21D;27024;54.068;12.116;2023-05-23T14:25:17;13.01;112.02
584;HTU21D;27024;54.068;12.116;2023-05-23T14:27:45;12.85;110.48
584;HTU21D;27024;54.068;12.116;2023-05-23T14:30:12;12.93;110.98
584;HTU21D;27024;54.068;12.116;2023-05-23T14:32:39;13.33;111.25
584;HTU21D;27024;54.068;12.116;2023-05-23T14:35:09;13.38;110.43
584;HTU21D;27024;54.068;12.116;2023-05-23T14:37:36;13.35;108.60
584;HTU21D;27024;54.068;12.116;2023-05-23T14:40:04;13.12;107.69
584;HTU21D;27024;54.068;12.116;2023-05-23T14:42:32;13.24;106.36
584;HTU21D;27024;54.068;12.116;2023-05-23T14:44:59;13.14;106.94
584;HTU21D;27024;54.068;12.116;2023-05-23T14:47:25;13.12;108.69
584;HTU21D;27024;54.068;12.116;2023-05-23T14:49:52;13.15;108.85
584;HTU21D;27024;54.068;12.116;2023-05-23T14:52:19;13.24;107.55
584;HTU21D;27024;54.068;12.116;2023-05-23T14:54:47;13.15;107.65
584;HTU21D;27024;54.068;12.116;2023-05-23T14:57:14;13.05;106.73
584;HTU21D;27024;54.068;12.116;2023-05-23T14:59:41;13.05;107.66
584;HTU21D;27024;54.068;12.116;2023-05-23T15:02:08;13.17;107.55
584;HTU21D;27024;54.068;12.116;2023-05-23T15:04:35;13.17;107.42
584;HTU21D;27024;54.068;12.116;2023-05-23T15:07:02;13.30;106.62
584;HTU21D;27024;54.068;12.116;2023-05-23T15:09:30;13.33;106.60
584;HTU21D;27024;54.068;12.116;2023-05-23T15:11:56;13.43;106.05
584;HTU21D;27024;54.068;12.116;2023-05-23T15:14:23;13.74;106.84
584;HTU21D;27024;54.068;12.116;2023-05-23T15:16:55;13.88;103.91
584;HTU21D;27024;54.068;12.116;2023-05-23T15:19:22;13.88;104.01
584;HTU21D;27024;54.068;12.116;2023-05-23T15:21:49;14.01;101.10
584;HTU21D;27024;54.068;12.116;2023-05-23T15:24:17;14.22;99.58
584;HTU21D;27024;54.068;12.116;2023-05-23T15:26:44;14.36;95.40
584;HTU21D;27024;54.068;12.116;2023-05-23T15:29:11;14.37;95.01
584;HTU21D;27024;54.068;12.116;2023-05-23T15:31:40;14.44;93.04
584;HTU21D;27024;54.068;12.116;2023-05-23T15:34:07;14.68;92.69
584;HTU21D;27024;54.068;12.116;2023-05-23T15:36:34;14.48;88.47
584;HTU21D;27024;54.068;12.116;2023-05-23T15:39:02;14.26;87.14
584;HTU21D;27024;54.068;12.116;2023-05-23T15:41:30;14.49;87.74
584;HTU21D;27024;54.068;12.116;2023-05-23T15:43:57;14.64;88.07
584;HTU21D;27024;54.068;12.116;2023-05-23T15:46:24;14.83;87.99
584;HTU21D;27024;54.068;12.116;2023-05-23T15:48:51;14.81;85.82
584;HTU21D;27024;54.068;12.116;2023-05-23T15:51:18;14.88;85.69
584;HTU21D;27024;54.068;12.116;2023-05-23T15:53:45;14.81;86.39
584;HTU21D;27024;54.068;12.116;2023-05-23T15:56:26;14.74;85.45
584;HTU21D;27024;54.068;12.116;2023-05-23T15:58:54;14.74;86.22
584;HTU21D;27024;54.068;12.116;2023-05-23T16:01:21;14.78;86.80
584;HTU21D;27024;54.068;12.116;2023-05-23T16:03:48;14.87;83.49